createdAt,value
2018-06-16T00:01:08.278Z,13.50
2018-06-16T00:03:37.067Z,13.40
2018-06-16T00:06:05.844Z,13.40
2018-06-16T00:08:34.646Z,13.30
2018-06-16T00:11:03.454Z,13.20
2018-06-16T00:13:32.182Z,13.10
2018-06-16T00:16:01.131Z,13.00
2018-06-16T00:18:29.805Z,13.00
2018-06-16T00:20:58.484Z,12.90
2018-06-16T00:23:27.229Z,12.90
2018-06-16T00:25:55.978Z,12.90
2018-06-16T00:28:24.734Z,12.80
2018-06-16T00:30:53.403Z,12.90
2018-06-16T00:33:22.104Z,12.80
2018-06-16T00:35:50.874Z,12.80
2018-06-16T00:38:19.626Z,12.80
2018-06-16T00:40:48.375Z,12.70
2018-06-16T00:43:17.078Z,12.70
2018-06-16T00:45:45.752Z,12.70
2018-06-16T00:48:14.474Z,12.70
2018-06-16T00:50:43.203Z,12.70
2018-06-16T00:53:12.000Z,12.60
2018-06-16T00:55:40.673Z,12.60
2018-06-16T00:58:09.386Z,12.60
2018-06-16T01:00:38.109Z,12.60
2018-06-16T01:03:06.758Z,12.70
2018-06-16T01:05:35.486Z,12.60
2018-06-16T01:08:05.055Z,12.60
2018-06-16T01:10:33.744Z,12.60
2018-06-16T01:13:02.577Z,12.60
2018-06-16T01:15:31.273Z,12.50
2018-06-16T01:17:59.940Z,12.50
2018-06-16T01:20:28.634Z,12.50
2018-06-16T01:22:57.317Z,12.40
2018-06-16T01:25:26.110Z,12.40
2018-06-16T01:27:54.785Z,12.30
2018-06-16T01:30:23.475Z,12.30
2018-06-16T01:32:52.178Z,12.10
2018-06-16T01:37:49.221Z,12.00
2018-06-16T01:42:46.213Z,11.80
2018-06-16T01:45:14.885Z,11.80
2018-06-16T01:47:43.542Z,11.70
2018-06-16T01:50:12.341Z,11.60
2018-06-16T01:52:41.058Z,11.60
2018-06-16T01:57:38.032Z,11.60
2018-06-16T02:00:07.549Z,11.50
2018-06-16T02:05:39.426Z,11.50
2018-06-16T02:10:36.519Z,11.50
2018-06-16T02:13:05.177Z,11.40
2018-06-16T02:15:33.821Z,11.40
2018-06-16T02:18:02.493Z,11.40
2018-06-16T02:20:31.349Z,11.30
2018-06-16T02:23:00.020Z,11.30
2018-06-16T02:25:28.702Z,11.30
2018-06-16T02:27:57.406Z,11.30
2018-06-16T02:30:26.082Z,11.30
2018-06-16T02:32:54.843Z,11.30
2018-06-16T02:35:23.597Z,11.20
2018-06-16T02:37:52.494Z,11.30
2018-06-16T02:40:21.223Z,11.30
2018-06-16T02:42:49.982Z,11.30
2018-06-16T02:45:18.644Z,11.40
2018-06-16T02:47:47.328Z,11.40
2018-06-16T02:50:16.152Z,11.50
2018-06-16T02:52:44.898Z,11.60
2018-06-16T02:55:13.608Z,11.70
2018-06-16T02:57:42.358Z,11.80
2018-06-16T03:00:11.026Z,11.90
2018-06-16T03:02:39.693Z,11.90
2018-06-16T03:05:08.509Z,12.00
2018-06-16T03:07:37.178Z,12.00
2018-06-16T03:12:34.520Z,12.10
2018-06-16T03:15:03.317Z,12.20
2018-06-16T03:17:32.014Z,12.20
2018-06-16T03:20:00.721Z,12.20
2018-06-16T03:22:29.456Z,12.20
2018-06-16T03:27:26.609Z,12.20
2018-06-16T03:29:55.341Z,12.30
2018-06-16T03:34:52.394Z,12.40
2018-06-16T03:37:21.091Z,12.50
2018-06-16T03:39:49.832Z,12.60
2018-06-16T03:42:18.653Z,12.70
2018-06-16T03:44:47.339Z,12.80
2018-06-16T03:47:16.149Z,12.90
2018-06-16T03:52:13.198Z,13.10
2018-06-16T03:54:41.906Z,13.20
2018-06-16T03:57:10.695Z,13.40
2018-06-16T03:59:39.418Z,13.50
2018-06-16T04:02:08.119Z,13.60
2018-06-16T04:04:36.918Z,13.70
2018-06-16T04:07:05.738Z,13.70
2018-06-16T04:09:34.431Z,13.70
2018-06-16T04:12:03.186Z,13.70
2018-06-16T04:14:31.870Z,13.70
2018-06-16T04:17:04.733Z,13.80
2018-06-16T04:19:34.538Z,13.90
2018-06-16T04:22:03.211Z,14.10
2018-06-16T04:24:32.170Z,14.20
2018-06-16T04:27:00.915Z,14.20
2018-06-16T04:29:29.600Z,14.30
2018-06-16T04:31:58.358Z,14.30
2018-06-16T04:34:27.197Z,14.30
2018-06-16T04:36:55.925Z,14.20
2018-06-16T04:39:24.692Z,14.10
2018-06-16T04:41:53.454Z,14.20
2018-06-16T04:44:22.280Z,14.40
2018-06-16T04:46:50.995Z,14.50
2018-06-16T04:49:19.693Z,14.60
2018-06-16T04:51:48.479Z,14.70
2018-06-16T04:54:17.201Z,14.80
2018-06-16T04:56:45.915Z,15.00
2018-06-16T04:59:14.673Z,15.10
2018-06-16T05:01:43.382Z,15.20
2018-06-16T05:04:12.227Z,15.20
2018-06-16T05:06:40.957Z,15.20
2018-06-16T05:09:11.354Z,15.30
2018-06-16T05:11:40.087Z,15.30
2018-06-16T05:14:08.918Z,15.40
2018-06-16T05:16:37.658Z,15.40
2018-06-16T05:19:06.370Z,15.60
2018-06-16T05:21:35.030Z,15.80
2018-06-16T05:24:03.827Z,16.00
2018-06-16T05:26:32.533Z,16.20
2018-06-16T05:29:01.229Z,16.30
2018-06-16T05:31:29.905Z,16.50
2018-06-16T05:33:58.593Z,16.70
2018-06-16T05:36:27.285Z,16.80
2018-06-16T05:38:56.030Z,17.00
2018-06-16T05:41:24.786Z,17.50
2018-06-16T05:43:53.517Z,17.80
2018-06-16T05:46:22.245Z,18.10
2018-06-16T05:48:50.938Z,18.40
2018-06-16T05:51:19.628Z,18.60
2018-06-16T05:53:48.337Z,18.70
2018-06-16T05:56:16.978Z,18.60
2018-06-16T05:58:45.685Z,18.50
2018-06-16T06:01:14.410Z,18.50
2018-06-16T06:03:43.073Z,18.60
2018-06-16T06:06:11.762Z,18.60
2018-06-16T06:08:40.445Z,18.80
2018-06-16T06:11:09.122Z,18.90
2018-06-16T06:13:37.809Z,19.10
2018-06-16T06:16:06.546Z,19.10
2018-06-16T06:18:35.249Z,19.00
2018-06-16T06:21:04.050Z,19.00
2018-06-16T06:23:32.737Z,18.80
2018-06-16T06:26:01.413Z,18.90
2018-06-16T06:28:30.060Z,18.70
2018-06-16T06:30:58.804Z,18.60
2018-06-16T06:33:28.474Z,18.70
2018-06-16T06:35:57.166Z,18.70
2018-06-16T06:38:25.911Z,18.40
2018-06-16T06:40:54.669Z,18.60
2018-06-16T06:43:23.419Z,18.70
2018-06-16T06:45:52.094Z,18.70
2018-06-16T06:48:20.808Z,18.80
2018-06-16T06:50:49.477Z,18.60
2018-06-16T06:53:18.259Z,18.80
2018-06-16T06:55:46.985Z,18.80
2018-06-16T06:58:15.704Z,18.90
2018-06-16T07:00:44.909Z,18.90
2018-06-16T07:03:13.598Z,18.90
2018-06-16T07:05:42.329Z,18.90
2018-06-16T07:08:11.014Z,19.00
2018-06-16T07:10:39.784Z,19.10
2018-06-16T07:13:08.451Z,18.80
2018-06-16T07:15:37.171Z,19.00
2018-06-16T07:18:05.933Z,19.20
2018-06-16T07:20:34.623Z,19.40
2018-06-16T07:23:03.349Z,19.90
2018-06-16T07:25:32.035Z,20.00
2018-06-16T07:28:00.730Z,20.30
2018-06-16T07:30:29.486Z,20.30
2018-06-16T07:32:58.194Z,20.30
2018-06-16T07:35:26.994Z,20.20
2018-06-16T07:37:55.690Z,20.40
2018-06-16T07:40:24.346Z,20.30
2018-06-16T07:42:53.066Z,20.60
2018-06-16T07:45:21.749Z,20.40
2018-06-16T07:47:50.380Z,20.80
2018-06-16T07:50:19.110Z,21.10
2018-06-16T07:52:47.788Z,21.10
2018-06-16T07:55:16.486Z,21.10
2018-06-16T07:57:45.149Z,20.70
2018-06-16T08:00:13.880Z,20.80
2018-06-16T08:02:42.591Z,20.80
2018-06-16T08:05:11.246Z,21.10
2018-06-16T08:07:39.975Z,20.70
2018-06-16T08:10:08.699Z,21.10
2018-06-16T08:12:37.357Z,21.10
2018-06-16T08:15:06.169Z,21.20
2018-06-16T08:17:34.829Z,21.00
2018-06-16T08:22:31.900Z,20.90
2018-06-16T08:25:00.545Z,20.90
2018-06-16T08:27:29.246Z,21.00
2018-06-16T08:29:57.981Z,20.60
2018-06-16T08:32:26.656Z,20.50
2018-06-16T08:37:23.662Z,20.00
2018-06-16T08:39:52.348Z,20.20
2018-06-16T08:42:21.052Z,19.90
2018-06-16T08:44:49.721Z,19.80
2018-06-16T08:47:18.403Z,19.90
2018-06-16T08:49:47.170Z,20.10
2018-06-16T08:52:15.898Z,20.20
2018-06-16T08:54:44.598Z,20.30
2018-06-16T08:57:13.300Z,20.40
2018-06-16T08:59:41.977Z,20.60
2018-06-16T09:02:10.686Z,20.50
2018-06-16T09:04:39.362Z,20.60
2018-06-16T09:07:08.079Z,20.80
2018-06-16T09:09:36.787Z,21.10
2018-06-16T09:12:05.506Z,21.00
2018-06-16T09:14:34.301Z,21.10
2018-06-16T09:17:03.010Z,21.00
2018-06-16T09:19:31.737Z,21.10
2018-06-16T09:22:00.465Z,21.20
2018-06-16T09:24:29.111Z,21.20
2018-06-16T09:26:57.755Z,21.20
2018-06-16T09:29:26.504Z,21.40
2018-06-16T09:31:55.234Z,21.30
2018-06-16T09:34:23.942Z,21.50
2018-06-16T09:36:52.661Z,21.60
2018-06-16T09:39:21.349Z,21.40
2018-06-16T09:41:50.100Z,21.40
2018-06-16T09:44:18.814Z,21.30
2018-06-16T09:46:47.522Z,21.80
2018-06-16T09:51:44.514Z,22.30
2018-06-16T09:54:13.193Z,22.20
2018-06-16T09:56:41.834Z,22.30
2018-06-16T09:59:10.514Z,22.30
2018-06-16T10:01:39.485Z,22.40
2018-06-16T10:04:08.191Z,22.40
2018-06-16T10:06:36.982Z,22.40
2018-06-16T10:09:07.126Z,22.20
2018-06-16T10:11:35.756Z,22.20
2018-06-16T10:14:04.491Z,21.90
2018-06-16T10:16:33.167Z,22.10
2018-06-16T10:19:01.849Z,22.20
2018-06-16T10:21:30.532Z,22.10
2018-06-16T10:23:59.254Z,22.10
2018-06-16T10:26:27.933Z,22.10
2018-06-16T10:28:56.626Z,22.30
2018-06-16T10:31:25.301Z,22.40
2018-06-16T10:33:53.962Z,22.60
2018-06-16T10:36:22.731Z,22.70
2018-06-16T10:38:51.491Z,22.80
2018-06-16T10:41:20.186Z,22.90
2018-06-16T10:43:48.898Z,23.10
2018-06-16T10:46:17.589Z,23.30
2018-06-16T10:48:46.258Z,23.40
2018-06-16T10:51:14.970Z,23.50
2018-06-16T10:53:43.690Z,23.60
2018-06-16T10:56:12.430Z,23.60
2018-06-16T10:58:41.286Z,23.80
2018-06-16T11:01:09.979Z,24.00
2018-06-16T11:03:38.730Z,24.20
2018-06-16T11:06:07.389Z,24.50
2018-06-16T11:08:36.074Z,24.60
2018-06-16T11:11:04.750Z,24.60
2018-06-16T11:13:33.430Z,24.60
2018-06-16T11:16:02.121Z,24.80
2018-06-16T11:18:30.779Z,24.70
2018-06-16T11:20:59.475Z,24.90
2018-06-16T11:23:28.181Z,25.10
2018-06-16T11:25:56.891Z,25.30
2018-06-16T11:28:25.613Z,25.50
2018-06-16T11:30:54.302Z,25.40
2018-06-16T11:33:22.972Z,25.20
2018-06-16T11:35:51.633Z,24.80
2018-06-16T11:38:20.332Z,24.60
2018-06-16T11:40:49.001Z,24.30
2018-06-16T11:43:17.724Z,24.30
2018-06-16T11:45:46.390Z,24.10
2018-06-16T11:48:15.074Z,24.00
2018-06-16T11:50:43.923Z,24.00
2018-06-16T11:53:12.616Z,24.00
2018-06-16T12:00:37.990Z,23.90
2018-06-16T12:03:06.745Z,23.80
2018-06-16T12:05:35.406Z,23.90
2018-06-16T12:08:04.094Z,24.00
2018-06-16T12:10:32.791Z,24.20
2018-06-16T12:13:01.514Z,24.20
2018-06-16T12:17:58.605Z,24.80
2018-06-16T12:20:27.302Z,24.80
2018-06-16T12:22:55.978Z,24.90
2018-06-16T12:25:24.666Z,25.10
2018-06-16T12:27:53.395Z,25.30
2018-06-16T12:30:22.072Z,25.70
2018-06-16T12:32:52.826Z,29.20
2018-06-16T12:35:44.173Z,32.00
2018-06-16T12:38:18.658Z,34.40
2018-06-16T12:40:47.366Z,34.70
2018-06-16T12:43:16.102Z,35.80
2018-06-16T12:45:44.847Z,36.70
2018-06-16T12:48:13.604Z,38.20
2018-06-16T12:50:42.273Z,40.20
2018-06-16T12:53:10.929Z,40.60
2018-06-16T12:55:39.638Z,41.20
2018-06-16T12:58:08.354Z,41.70
2018-06-16T13:00:37.089Z,42.30
2018-06-16T13:03:05.777Z,42.50
2018-06-16T13:05:34.509Z,42.70
2018-06-16T13:08:03.214Z,42.20
2018-06-16T13:10:31.947Z,42.40
2018-06-16T13:13:00.618Z,43.80
2018-06-16T13:15:29.341Z,44.20
2018-06-16T13:17:58.106Z,42.90
2018-06-16T13:20:26.789Z,42.30
2018-06-16T13:22:55.433Z,38.60
2018-06-16T13:25:24.100Z,38.10
2018-06-16T13:30:21.157Z,36.50
2018-06-16T13:32:49.838Z,34.90
2018-06-16T13:35:18.513Z,34.80
2018-06-16T13:37:50.139Z,32.90
2018-06-16T13:43:38.579Z,31.10
2018-06-16T13:46:24.408Z,30.20
2018-06-16T13:48:53.269Z,29.80
2018-06-16T13:51:22.339Z,29.10
2018-06-16T13:53:51.042Z,28.60
2018-06-16T13:56:19.754Z,27.90
2018-06-16T13:58:48.530Z,27.70
2018-06-16T14:01:17.242Z,27.40
2018-06-16T14:03:45.981Z,27.20
2018-06-16T14:06:14.717Z,26.60
2018-06-16T14:08:43.370Z,26.40
2018-06-16T14:11:12.098Z,26.10
2018-06-16T14:13:40.786Z,25.80
2018-06-16T14:16:09.442Z,25.80
2018-06-16T14:18:38.089Z,25.70
2018-06-16T14:21:07.150Z,26.00
2018-06-16T14:23:35.825Z,26.70
2018-06-16T14:26:04.576Z,26.90
2018-06-16T14:28:33.242Z,26.90
2018-06-16T14:31:01.944Z,26.70
2018-06-16T14:33:30.628Z,27.00
2018-06-16T14:35:59.286Z,26.90
2018-06-16T14:38:27.973Z,27.00
2018-06-16T14:40:56.694Z,27.00
2018-06-16T14:43:25.434Z,26.70
2018-06-16T14:45:54.060Z,26.20
2018-06-16T14:48:22.791Z,26.00
2018-06-16T14:50:51.522Z,25.60
2018-06-16T14:53:20.194Z,25.30
2018-06-16T14:55:48.926Z,24.90
2018-06-16T14:58:17.627Z,24.50
2018-06-16T15:00:46.271Z,24.20
2018-06-16T15:03:14.982Z,24.00
2018-06-16T15:05:43.672Z,23.80
2018-06-16T15:08:12.354Z,23.60
2018-06-16T15:10:41.073Z,23.50
2018-06-16T15:15:38.127Z,23.00
2018-06-16T15:18:06.857Z,22.80
2018-06-16T15:20:35.502Z,22.60
2018-06-16T15:23:04.173Z,22.40
2018-06-16T15:25:32.883Z,22.20
2018-06-16T15:28:01.522Z,22.00
2018-06-16T15:30:30.296Z,21.70
2018-06-16T15:32:58.965Z,21.60
2018-06-16T15:35:27.618Z,21.40
2018-06-16T15:40:24.628Z,21.10
2018-06-16T15:42:53.385Z,21.00
2018-06-16T15:47:51.117Z,20.70
2018-06-16T15:50:19.793Z,20.50
2018-06-16T15:52:48.718Z,20.30
2018-06-16T15:57:45.785Z,19.60
2018-06-16T16:02:42.781Z,19.10
2018-06-16T16:05:11.483Z,18.80
2018-06-16T16:07:40.143Z,18.50
2018-06-16T16:10:08.854Z,18.30
2018-06-16T16:12:37.509Z,18.10
2018-06-16T16:15:06.206Z,18.10
2018-06-16T16:17:34.871Z,18.00
2018-06-16T16:20:03.706Z,18.10
2018-06-16T16:22:32.336Z,18.20
2018-06-16T16:25:01.006Z,18.10
2018-06-16T16:27:29.668Z,18.10
2018-06-16T16:29:58.504Z,17.90
2018-06-16T16:32:27.167Z,17.90
2018-06-16T16:34:55.862Z,17.70
2018-06-16T16:37:24.564Z,17.80
2018-06-16T16:39:53.253Z,17.60
2018-06-16T16:42:21.962Z,17.70
2018-06-16T16:44:50.650Z,17.70
2018-06-16T16:47:19.339Z,17.70
2018-06-16T16:49:47.998Z,17.70
2018-06-16T16:52:16.667Z,17.60
2018-06-16T16:54:45.370Z,17.50
2018-06-16T16:57:14.218Z,17.40
2018-06-16T16:59:42.922Z,17.40
2018-06-16T17:02:11.590Z,17.30
2018-06-16T17:04:40.269Z,17.10
2018-06-16T17:07:08.950Z,17.00
2018-06-16T17:09:37.690Z,17.20
2018-06-16T17:12:06.390Z,17.10
2018-06-16T17:14:35.084Z,17.10
2018-06-16T17:17:03.841Z,16.90
2018-06-16T17:19:32.518Z,16.80
2018-06-16T17:22:02.114Z,16.90
2018-06-16T17:24:30.848Z,17.00
2018-06-16T17:27:00.340Z,17.10
2018-06-16T17:29:29.058Z,17.00
2018-06-16T17:31:57.763Z,17.00
2018-06-16T17:34:26.450Z,17.00
2018-06-16T17:36:55.146Z,16.90
2018-06-16T17:39:23.826Z,16.80
2018-06-16T17:41:52.542Z,16.70
2018-06-16T17:44:21.278Z,16.70
2018-06-16T17:46:49.994Z,16.70
2018-06-16T17:49:18.802Z,16.70
2018-06-16T17:51:47.453Z,16.50
2018-06-16T17:54:16.114Z,15.90
2018-06-16T17:56:44.851Z,15.70
2018-06-16T17:59:13.527Z,15.50
2018-06-16T18:01:42.227Z,15.40
2018-06-16T18:04:10.946Z,15.40
2018-06-16T18:06:39.674Z,15.40
2018-06-16T18:09:10.162Z,15.50
2018-06-16T18:11:38.882Z,15.50
2018-06-16T18:14:07.657Z,15.50
2018-06-16T18:16:36.438Z,15.40
2018-06-16T18:19:05.234Z,15.50
2018-06-16T18:21:34.309Z,15.60
2018-06-16T18:24:03.106Z,15.70
2018-06-16T18:26:31.810Z,15.70
2018-06-16T18:29:00.523Z,15.70
2018-06-16T18:31:29.252Z,15.60
2018-06-16T18:33:58.030Z,15.50
2018-06-16T18:36:26.706Z,15.40
2018-06-16T18:38:55.442Z,15.30
2018-06-16T18:41:24.309Z,15.30
2018-06-16T18:43:52.983Z,15.30
2018-06-16T18:46:21.718Z,15.20
2018-06-16T18:48:50.382Z,15.20
2018-06-16T18:51:19.093Z,15.10
2018-06-16T18:53:47.842Z,15.20
2018-06-16T18:58:44.894Z,15.10
2018-06-16T19:01:13.653Z,15.10
2018-06-16T19:03:42.413Z,15.10
2018-06-16T19:08:39.478Z,14.90
2018-06-16T19:11:08.298Z,14.70
2018-06-16T19:13:37.081Z,14.60
2018-06-16T19:16:06.156Z,14.60
2018-06-16T19:18:34.829Z,14.50
2018-06-16T19:21:03.521Z,14.50
2018-06-16T19:23:32.310Z,14.50
2018-06-16T19:26:00.986Z,14.40
2018-06-16T19:28:29.673Z,14.40
2018-06-16T19:30:58.427Z,14.40
2018-06-16T19:33:27.093Z,14.40
2018-06-16T19:35:55.822Z,14.50
2018-06-16T19:38:24.645Z,14.50
2018-06-16T19:40:53.491Z,14.50
2018-06-16T19:43:22.315Z,14.50
2018-06-16T19:45:51.036Z,14.60
2018-06-16T19:48:19.762Z,14.60
2018-06-16T19:50:48.519Z,14.60
2018-06-16T19:53:17.234Z,14.60
2018-06-16T19:55:45.950Z,14.70
2018-06-16T19:58:14.638Z,14.60
2018-06-16T20:00:43.398Z,14.70
2018-06-16T20:03:12.162Z,14.70
2018-06-16T20:05:40.918Z,14.80
2018-06-16T20:08:09.816Z,14.80
2018-06-16T20:10:38.550Z,14.80
2018-06-16T20:13:07.262Z,14.90
2018-06-16T20:15:35.981Z,14.80
2018-06-16T20:18:04.690Z,14.80
2018-06-16T20:20:33.391Z,14.80
2018-06-16T20:23:02.135Z,14.80
2018-06-16T20:25:30.933Z,14.70
2018-06-16T20:27:59.893Z,14.80
2018-06-16T20:30:28.676Z,14.80
2018-06-16T20:32:57.385Z,14.80
2018-06-16T20:35:26.102Z,14.70
2018-06-16T20:37:54.911Z,14.60
2018-06-16T20:40:23.685Z,14.80
2018-06-16T20:42:52.539Z,14.70
2018-06-16T20:45:21.449Z,14.70
2018-06-16T20:47:50.183Z,14.50
2018-06-16T20:50:19.066Z,14.50
2018-06-16T20:52:47.798Z,14.40
2018-06-16T20:55:16.537Z,14.40
2018-06-16T20:57:45.281Z,14.30
2018-06-16T21:00:14.062Z,14.30
2018-06-16T21:02:42.774Z,14.20
2018-06-16T21:05:11.599Z,14.30
2018-06-16T21:07:40.325Z,14.30
2018-06-16T21:10:09.166Z,14.40
2018-06-16T21:12:37.874Z,14.40
2018-06-16T21:15:06.684Z,14.40
2018-06-16T21:17:35.412Z,14.40
2018-06-16T21:20:04.255Z,14.50
2018-06-16T21:22:32.962Z,14.50
2018-06-16T21:25:01.668Z,14.50
2018-06-16T21:27:30.401Z,14.50
2018-06-16T21:29:59.163Z,14.50
2018-06-16T21:32:27.887Z,14.50
2018-06-16T21:34:56.749Z,14.40
2018-06-16T21:37:25.431Z,14.40
2018-06-16T21:39:54.264Z,14.50
2018-06-16T21:42:22.990Z,14.50
2018-06-16T21:44:51.702Z,14.60
2018-06-16T21:47:20.586Z,14.60
2018-06-16T21:49:49.311Z,14.60
2018-06-16T21:52:18.072Z,14.60
2018-06-16T21:54:46.750Z,14.70
2018-06-16T21:57:15.463Z,14.60
2018-06-16T21:59:44.209Z,14.60
2018-06-16T22:02:13.036Z,14.70
2018-06-16T22:04:41.746Z,14.80
2018-06-16T22:07:10.446Z,14.80
2018-06-16T22:09:39.126Z,14.80
2018-06-16T22:12:07.822Z,14.80
2018-06-16T22:14:36.575Z,14.80
2018-06-16T22:17:05.290Z,14.80
2018-06-16T22:19:34.144Z,14.70
2018-06-16T22:22:02.881Z,14.70
2018-06-16T22:24:31.708Z,14.70
2018-06-16T22:27:00.433Z,14.70
2018-06-16T22:29:29.154Z,14.60
2018-06-16T22:34:26.269Z,14.50
2018-06-16T22:36:54.974Z,14.50
2018-06-16T22:39:23.778Z,14.50
2018-06-16T22:41:52.481Z,14.40
2018-06-16T22:44:21.293Z,14.40
2018-06-16T22:46:50.011Z,14.40
2018-06-16T22:49:18.793Z,14.30
2018-06-16T22:51:47.542Z,14.30
2018-06-16T22:54:16.382Z,14.20
2018-06-16T22:56:45.357Z,14.20
2018-06-16T22:59:14.062Z,14.20
2018-06-16T23:01:42.894Z,14.20
2018-06-16T23:04:11.702Z,14.10
2018-06-16T23:06:40.804Z,14.10
2018-06-16T23:09:11.157Z,14.10
2018-06-16T23:11:39.855Z,14.10
2018-06-16T23:14:08.643Z,14.10
2018-06-16T23:16:38.417Z,14.10
2018-06-16T23:19:07.168Z,14.10
2018-06-16T23:24:04.336Z,14.10
2018-06-16T23:26:33.228Z,14.10
2018-06-16T23:29:02.043Z,14.10
2018-06-16T23:31:30.678Z,14.20
2018-06-16T23:33:59.461Z,14.10
2018-06-16T23:36:28.191Z,14.10
2018-06-16T23:38:56.907Z,14.20
2018-06-16T23:41:25.670Z,14.20
2018-06-16T23:43:54.405Z,14.20
2018-06-16T23:46:23.130Z,14.10
2018-06-16T23:48:51.939Z,14.00
2018-06-16T23:51:20.806Z,13.90
2018-06-16T23:53:49.598Z,13.80
2018-06-16T23:56:18.303Z,13.70
2018-06-16T23:58:47.049Z,13.70
